UAL410 KSAT-KIAH
Flight info
| Callsign | UAL410 |
|---|---|
| Flight time | 0h 32m |
| Altitude | 21000 |
| Route | SNIDR2 WEMAR HTOWN3 |
| Aircraft | B38M/M-SDE1FGHILORVWXY/HB1 |
Departure
| Time | 2026-04-21 19:14 |
|---|---|
| Airport | San Antonio International Airport (KSAT) |
Arrival
| Time | 2026-04-21 19:47 |
|---|---|
| Airport | George Bush Intercontinental Airport (KIAH) |
| Time | Latitude | Longitude | Altitude | Speed | Heading |
|---|---|---|---|---|---|
| 2026-04-21 18:53 | 29.52942 | -98.47239 | 801 ft | 0 kts | 170° |
| 2026-04-21 19:04 | 29.52945 | -98.47239 | 810 ft | 2 kts | 170° |
| 2026-04-21 19:04 | 29.52961 | -98.47243 | 801 ft | 2 kts | 170° |
| 2026-04-21 19:05 | 29.52977 | -98.47246 | 801 ft | 2 kts | 170° |
| 2026-04-21 19:05 | 29.52993 | -98.47252 | 801 ft | 2 kts | 136° |
| 2026-04-21 19:05 | 29.53000 | -98.47268 | 801 ft | 2 kts | 88° |
| 2026-04-21 19:05 | 29.52999 | -98.47287 | 801 ft | 2 kts | 55° |
| 2026-04-21 19:06 | 29.52989 | -98.47296 | 801 ft | 0 kts | 40° |
| 2026-04-21 19:09 | 29.52990 | -98.47295 | 801 ft | 1 kts | 40° |
| 2026-04-21 19:09 | 29.53012 | -98.47277 | 801 ft | 7 kts | 24° |
| 2026-04-21 19:09 | 29.53082 | -98.47297 | 801 ft | 14 kts | 333° |
| 2026-04-21 19:10 | 29.53193 | -98.47365 | 800 ft | 22 kts | 325° |
| 2026-04-21 19:10 | 29.53311 | -98.47501 | 800 ft | 25 kts | 312° |
| 2026-04-21 19:10 | 29.53420 | -98.47643 | 800 ft | 23 kts | 312° |
| 2026-04-21 19:10 | 29.53520 | -98.47770 | 800 ft | 20 kts | 310° |
| 2026-04-21 19:11 | 29.53608 | -98.47886 | 800 ft | 18 kts | 311° |
| 2026-04-21 19:11 | 29.53688 | -98.47988 | 800 ft | 16 kts | 311° |
| 2026-04-21 19:11 | 29.53761 | -98.48082 | 800 ft | 16 kts | 312° |
| 2026-04-21 19:11 | 29.53843 | -98.48186 | 800 ft | 19 kts | 312° |
| 2026-04-21 19:12 | 29.53928 | -98.48296 | 800 ft | 18 kts | 311° |
| 2026-04-21 19:12 | 29.54008 | -98.48399 | 800 ft | 18 kts | 311° |
| 2026-04-21 19:12 | 29.54095 | -98.48511 | 800 ft | 18 kts | 312° |
| 2026-04-21 19:12 | 29.54182 | -98.48600 | 800 ft | 16 kts | 348° |
| 2026-04-21 19:13 | 29.54252 | -98.48541 | 800 ft | 12 kts | 88° |
| 2026-04-21 19:13 | 29.54209 | -98.48469 | 800 ft | 15 kts | 131° |
| 2026-04-21 19:13 | 29.53989 | -98.48185 | 800 ft | 87 kts | 131° |
| 2026-04-21 19:13 | 29.53427 | -98.47458 | 801 ft | 154 kts | 130° |
| 2026-04-21 19:14 | 29.52592 | -98.46429 | 1179 ft | 188 kts | 132° |
| 2026-04-21 19:14 | 29.51804 | -98.45436 | 2492 ft | 171 kts | 134° |
| 2026-04-21 19:14 | 29.50905 | -98.44253 | 2647 ft | 220 kts | 133° |
| 2026-04-21 19:14 | 29.49825 | -98.42839 | 3249 ft | 239 kts | 130° |
| 2026-04-21 19:15 | 29.49193 | -98.41097 | 4474 ft | 243 kts | 100° |
| 2026-04-21 19:15 | 29.49356 | -98.39097 | 5281 ft | 266 kts | 74° |
| 2026-04-21 19:15 | 29.50379 | -98.37239 | 5996 ft | 289 kts | 43° |
| 2026-04-21 19:15 | 29.52038 | -98.35920 | 7013 ft | 291 kts | 37° |
| 2026-04-21 19:16 | 29.53558 | -98.34344 | 7928 ft | 296 kts | 44° |
| 2026-04-21 19:16 | 29.55067 | -98.32709 | 8921 ft | 301 kts | 42° |
| 2026-04-21 19:16 | 29.56617 | -98.31074 | 9875 ft | 305 kts | 40° |
| 2026-04-21 19:16 | 29.58219 | -98.29413 | 10606 ft | 317 kts | 39° |
| 2026-04-21 19:17 | 29.61670 | -98.25759 | 11491 ft | 358 kts | 49° |
| 2026-04-21 19:17 | 29.62892 | -98.23260 | 12107 ft | 371 kts | 70° |
| 2026-04-21 19:17 | 29.63345 | -98.20310 | 12917 ft | 375 kts | 84° |
| 2026-04-21 19:18 | 29.63620 | -98.17292 | 13687 ft | 383 kts | 83° |
| 2026-04-21 19:18 | 29.63911 | -98.14218 | 14426 ft | 388 kts | 83° |
| 2026-04-21 19:18 | 29.64200 | -98.11120 | 15192 ft | 392 kts | 83° |
| 2026-04-21 19:18 | 29.64488 | -98.08020 | 15936 ft | 396 kts | 83° |
| 2026-04-21 19:19 | 29.64782 | -98.04839 | 16662 ft | 400 kts | 83° |
| 2026-04-21 19:19 | 29.65033 | -98.01640 | 17367 ft | 404 kts | 88° |
| 2026-04-21 19:19 | 29.65067 | -97.98399 | 18063 ft | 407 kts | 89° |
| 2026-04-21 19:19 | 29.65113 | -97.95163 | 18672 ft | 411 kts | 88° |
| 2026-04-21 19:20 | 29.65172 | -97.91860 | 19245 ft | 415 kts | 88° |
| 2026-04-21 19:20 | 29.65236 | -97.88522 | 19806 ft | 420 kts | 88° |
| 2026-04-21 19:20 | 29.65303 | -97.85144 | 20362 ft | 425 kts | 88° |
| 2026-04-21 19:20 | 29.65352 | -97.81730 | 20900 ft | 430 kts | 89° |
| 2026-04-21 19:21 | 29.65387 | -97.78265 | 21112 ft | 437 kts | 89° |
| 2026-04-21 19:21 | 29.65426 | -97.74715 | 21132 ft | 451 kts | 89° |
| 2026-04-21 19:21 | 29.65465 | -97.71050 | 21134 ft | 464 kts | 89° |
| 2026-04-21 19:21 | 29.65505 | -97.67296 | 21141 ft | 475 kts | 89° |
| 2026-04-21 19:22 | 29.65544 | -97.63522 | 21147 ft | 482 kts | 89° |
| 2026-04-21 19:22 | 29.65583 | -97.59649 | 21157 ft | 485 kts | 89° |
| 2026-04-21 19:22 | 29.65620 | -97.55757 | 21186 ft | 485 kts | 89° |
| 2026-04-21 19:22 | 29.65657 | -97.51869 | 21189 ft | 485 kts | 89° |
| 2026-04-21 19:23 | 29.65692 | -97.47986 | 21209 ft | 485 kts | 89° |
| 2026-04-21 19:23 | 29.65727 | -97.44099 | 21190 ft | 485 kts | 89° |
| 2026-04-21 19:23 | 29.65760 | -97.40274 | 21207 ft | 485 kts | 89° |
| 2026-04-21 19:23 | 29.65792 | -97.36394 | 21195 ft | 485 kts | 89° |
| 2026-04-21 19:24 | 29.65823 | -97.32513 | 21199 ft | 485 kts | 89° |
| 2026-04-21 19:24 | 29.65853 | -97.28624 | 21199 ft | 485 kts | 89° |
| 2026-04-21 19:24 | 29.65881 | -97.24747 | 21194 ft | 485 kts | 89° |
| 2026-04-21 19:24 | 29.65909 | -97.20870 | 21192 ft | 485 kts | 89° |
| 2026-04-21 19:25 | 29.65935 | -97.16992 | 21189 ft | 485 kts | 89° |
| 2026-04-21 19:25 | 29.65960 | -97.13117 | 21189 ft | 485 kts | 89° |
| 2026-04-21 19:25 | 29.65985 | -97.09235 | 21180 ft | 485 kts | 89° |
| 2026-04-21 19:25 | 29.66009 | -97.05357 | 21180 ft | 485 kts | 89° |
| 2026-04-21 19:26 | 29.65995 | -97.01476 | 21173 ft | 485 kts | 94° |
| 2026-04-21 19:26 | 29.65544 | -96.97636 | 21183 ft | 485 kts | 99° |
| 2026-04-21 19:26 | 29.65031 | -96.93804 | 21162 ft | 485 kts | 99° |
| 2026-04-21 19:26 | 29.64506 | -96.89973 | 21169 ft | 485 kts | 99° |
| 2026-04-21 19:27 | 29.63977 | -96.86144 | 21157 ft | 485 kts | 99° |
| 2026-04-21 19:27 | 29.63447 | -96.82320 | 21152 ft | 485 kts | 99° |
| 2026-04-21 19:27 | 29.62916 | -96.78498 | 21148 ft | 485 kts | 99° |
| 2026-04-21 19:27 | 29.62383 | -96.74666 | 21146 ft | 485 kts | 99° |
| 2026-04-21 19:28 | 29.61857 | -96.70899 | 21157 ft | 468 kts | 99° |
| 2026-04-21 19:28 | 29.61353 | -96.67299 | 20727 ft | 459 kts | 99° |
| 2026-04-21 19:28 | 29.60847 | -96.63686 | 20106 ft | 458 kts | 99° |
| 2026-04-21 19:28 | 29.60341 | -96.60083 | 19497 ft | 455 kts | 99° |
| 2026-04-21 19:29 | 29.59838 | -96.56504 | 18899 ft | 453 kts | 99° |
| 2026-04-21 19:29 | 29.59334 | -96.52934 | 18273 ft | 451 kts | 100° |
| 2026-04-21 19:29 | 29.58835 | -96.49397 | 17842 ft | 443 kts | 100° |
| 2026-04-21 19:29 | 29.58346 | -96.45947 | 17583 ft | 431 kts | 100° |
| 2026-04-21 19:30 | 29.57870 | -96.42591 | 17360 ft | 420 kts | 100° |
| 2026-04-21 19:30 | 29.57406 | -96.39319 | 17188 ft | 408 kts | 100° |
| 2026-04-21 19:30 | 29.56969 | -96.36247 | 16944 ft | 400 kts | 100° |
| 2026-04-21 19:30 | 29.56508 | -96.33015 | 16653 ft | 391 kts | 100° |
| 2026-04-21 19:31 | 29.56075 | -96.29983 | 16457 ft | 376 kts | 101° |
| 2026-04-21 19:31 | 29.55658 | -96.27067 | 16301 ft | 364 kts | 101° |
| 2026-04-21 19:31 | 29.55260 | -96.24269 | 16080 ft | 357 kts | 100° |
| 2026-04-21 19:31 | 29.55275 | -96.21363 | 15249 ft | 371 kts | 77° |
| 2026-04-21 19:32 | 29.56216 | -96.18647 | 14712 ft | 363 kts | 56° |
| 2026-04-21 19:32 | 29.57847 | -96.16487 | 14151 ft | 355 kts | 40° |
| 2026-04-21 19:32 | 29.59631 | -96.14539 | 13459 ft | 354 kts | 41° |
| 2026-04-21 19:32 | 29.61417 | -96.12592 | 12755 ft | 353 kts | 41° |
| 2026-04-21 19:33 | 29.62596 | -96.11312 | 12318 ft | 351 kts | 41° |
| 2026-04-21 19:33 | 29.64969 | -96.08742 | 11475 ft | 349 kts | 41° |
| 2026-04-21 19:33 | 29.66735 | -96.06828 | 10787 ft | 348 kts | 41° |
| 2026-04-21 19:33 | 29.68467 | -96.04952 | 10149 ft | 345 kts | 41° |
| 2026-04-21 19:34 | 29.70191 | -96.03084 | 9781 ft | 332 kts | 41° |
| 2026-04-21 19:34 | 29.71826 | -96.01324 | 9668 ft | 311 kts | 38° |
| 2026-04-21 19:34 | 29.73551 | -95.99910 | 9207 ft | 304 kts | 30° |
| 2026-04-21 19:34 | 29.75338 | -95.98580 | 8525 ft | 307 kts | 31° |
| 2026-04-21 19:35 | 29.77115 | -95.97219 | 8017 ft | 303 kts | 32° |
| 2026-04-21 19:35 | 29.80461 | -95.94608 | 7842 ft | 278 kts | 32° |
| 2026-04-21 19:35 | 29.82030 | -95.93372 | 7653 ft | 269 kts | 33° |
| 2026-04-21 19:36 | 29.83552 | -95.92168 | 7441 ft | 262 kts | 33° |
| 2026-04-21 19:36 | 29.85020 | -95.91007 | 7248 ft | 255 kts | 33° |
| 2026-04-21 19:36 | 29.86471 | -95.89857 | 7064 ft | 253 kts | 33° |
| 2026-04-21 19:36 | 29.87926 | -95.88720 | 6951 ft | 252 kts | 32° |
| 2026-04-21 19:37 | 29.89382 | -95.87582 | 6908 ft | 253 kts | 32° |
| 2026-04-21 19:37 | 29.90837 | -95.86445 | 6926 ft | 253 kts | 32° |
| 2026-04-21 19:37 | 29.92297 | -95.85301 | 6935 ft | 253 kts | 32° |
| 2026-04-21 19:37 | 29.93753 | -95.84161 | 6931 ft | 252 kts | 32° |
| 2026-04-21 19:38 | 29.95209 | -95.83022 | 6943 ft | 252 kts | 33° |
| 2026-04-21 19:38 | 29.96634 | -95.81904 | 6965 ft | 250 kts | 33° |
| 2026-04-21 19:38 | 29.97515 | -95.81002 | 6948 ft | 252 kts | 52° |
| 2026-04-21 19:38 | 29.98515 | -95.78602 | 6959 ft | 252 kts | 70° |
| 2026-04-21 19:39 | 29.99101 | -95.76687 | 6949 ft | 254 kts | 77° |
| 2026-04-21 19:39 | 29.99326 | -95.74656 | 6675 ft | 258 kts | 90° |
| 2026-04-21 19:39 | 29.99332 | -95.72577 | 6290 ft | 260 kts | 93° |
| 2026-04-21 19:39 | 29.99315 | -95.70492 | 5956 ft | 259 kts | 94° |
| 2026-04-21 19:40 | 29.99311 | -95.69114 | 5729 ft | 258 kts | 94° |
| 2026-04-21 19:40 | 29.99307 | -95.66394 | 5349 ft | 252 kts | 94° |
| 2026-04-21 19:40 | 29.99308 | -95.65039 | 5127 ft | 249 kts | 94° |
| 2026-04-21 19:40 | 29.99309 | -95.63063 | 4801 ft | 244 kts | 94° |
| 2026-04-21 19:41 | 29.99312 | -95.61128 | 4470 ft | 235 kts | 94° |
| 2026-04-21 19:41 | 29.99316 | -95.59328 | 4158 ft | 219 kts | 95° |
| 2026-04-21 19:41 | 29.99320 | -95.57640 | 3892 ft | 201 kts | 96° |
| 2026-04-21 19:41 | 29.99323 | -95.56120 | 3649 ft | 177 kts | 95° |
| 2026-04-21 19:42 | 29.99328 | -95.54783 | 3420 ft | 156 kts | 97° |
| 2026-04-21 19:42 | 29.99329 | -95.53586 | 3214 ft | 145 kts | 98° |
| 2026-04-21 19:42 | 29.99327 | -95.52433 | 3012 ft | 143 kts | 97° |
| 2026-04-21 19:42 | 29.99325 | -95.51308 | 2821 ft | 142 kts | 98° |
| 2026-04-21 19:43 | 29.99328 | -95.50179 | 2649 ft | 139 kts | 99° |
| 2026-04-21 19:43 | 29.99327 | -95.49072 | 2455 ft | 139 kts | 97° |
| 2026-04-21 19:43 | 29.99327 | -95.47954 | 2291 ft | 139 kts | 97° |
| 2026-04-21 19:43 | 29.99328 | -95.46847 | 2106 ft | 137 kts | 96° |
| 2026-04-21 19:44 | 29.99330 | -95.45767 | 1932 ft | 132 kts | 96° |
| 2026-04-21 19:44 | 29.99332 | -95.44710 | 1762 ft | 132 kts | 96° |
| 2026-04-21 19:44 | 29.99333 | -95.43647 | 1565 ft | 134 kts | 95° |
| 2026-04-21 19:44 | 29.99333 | -95.42565 | 1410 ft | 135 kts | 96° |
| 2026-04-21 19:45 | 29.99335 | -95.41475 | 1220 ft | 136 kts | 96° |
| 2026-04-21 19:45 | 29.99336 | -95.40400 | 1024 ft | 135 kts | 95° |
| 2026-04-21 19:45 | 29.99334 | -95.39312 | 795 ft | 137 kts | 90° |
| 2026-04-21 19:45 | 29.99332 | -95.38187 | 596 ft | 142 kts | 90° |
| 2026-04-21 19:46 | 29.99339 | -95.37042 | 390 ft | 144 kts | 87° |
| 2026-04-21 19:46 | 29.99340 | -95.35883 | 216 ft | 144 kts | 87° |
| 2026-04-21 19:46 | 29.99339 | -95.34743 | 110 ft | 131 kts | 87° |
| 2026-04-21 19:46 | 29.99344 | -95.34003 | 108 ft | 60 kts | 90° |
| 2026-04-21 19:47 | 29.99344 | -95.33697 | 110 ft | 32 kts | 90° |
| 2026-04-21 19:47 | 29.99339 | -95.33446 | 110 ft | 31 kts | 97° |
| 2026-04-21 19:47 | 29.99278 | -95.33221 | 110 ft | 28 kts | 119° |
| 2026-04-21 19:47 | 29.99190 | -95.33053 | 109 ft | 15 kts | 128° |
| 2026-04-21 19:48 | 29.99100 | -95.33053 | 109 ft | 14 kts | 233° |
| 2026-04-21 19:48 | 29.99090 | -95.33163 | 109 ft | 14 kts | 269° |
| 2026-04-21 19:48 | 29.99089 | -95.33290 | 109 ft | 20 kts | 269° |
| 2026-04-21 19:48 | 29.99090 | -95.33485 | 109 ft | 28 kts | 271° |
| 2026-04-21 19:49 | 29.99089 | -95.33711 | 109 ft | 28 kts | 269° |
| 2026-04-21 19:49 | 29.99088 | -95.33932 | 110 ft | 26 kts | 270° |
| 2026-04-21 19:49 | 29.99088 | -95.34104 | 109 ft | 21 kts | 270° |
| 2026-04-21 19:49 | 29.99053 | -95.34254 | 110 ft | 20 kts | 204° |
| 2026-04-21 19:50 | 29.98941 | -95.34262 | 110 ft | 10 kts | 171° |
| 2026-04-21 19:50 | 29.98913 | -95.34233 | 110 ft | 0 kts | 111° |
| 2026-04-21 19:50 | 29.98912 | -95.34225 | 110 ft | 2 kts | 97° |
| 2026-04-21 19:50 | 29.98906 | -95.34210 | 110 ft | 2 kts | 123° |
| 2026-04-21 19:51 | 29.98899 | -95.34198 | 110 ft | 0 kts | 121° |